sensor_id;sensor_type;location;lat;lon;timestamp;pressure;altitude;pressure_sealevel;temperature;humidity
15263;BME280;7733;51.554;13.590;2023-04-24T00:00:14;99207.53;;;16.24;81.51
15263;BME280;7733;51.554;13.590;2023-04-24T00:02:44;99200.53;;;16.23;81.71
15263;BME280;7733;51.554;13.590;2023-04-24T00:05:13;99200.44;;;16.08;82.46
15263;BME280;7733;51.554;13.590;2023-04-24T00:07:41;99196.88;;;16.09;81.79
15263;BME280;7733;51.554;13.590;2023-04-24T00:10:08;99191.41;;;16.12;81.92
15263;BME280;7733;51.554;13.590;2023-04-24T00:12:34;99190.38;;;16.15;82.24
15263;BME280;7733;51.554;13.590;2023-04-24T00:15:00;99190.22;;;16.02;82.26
15263;BME280;7733;51.554;13.590;2023-04-24T00:17:26;99183.81;;;16.06;81.63
15263;BME280;7733;51.554;13.590;2023-04-24T00:19:52;99189.59;;;15.97;81.36
15263;BME280;7733;51.554;13.590;2023-04-24T00:22:25;99200.72;;;14.87;88.97
15263;BME280;7733;51.554;13.590;2023-04-24T00:24:50;99209.94;;;14.96;88.50
15263;BME280;7733;51.554;13.590;2023-04-24T00:27:16;99206.88;;;15.21;87.43
15263;BME280;7733;51.554;13.590;2023-04-24T00:29:42;99203.34;;;15.22;86.83
15263;BME280;7733;51.554;13.590;2023-04-24T00:32:08;99198.94;;;15.38;86.21
15263;BME280;7733;51.554;13.590;2023-04-24T00:34:33;99198.19;;;15.69;83.73
15263;BME280;7733;51.554;13.590;2023-04-24T00:36:59;99203.97;;;15.60;82.65
15263;BME280;7733;51.554;13.590;2023-04-24T00:39:25;99207.34;;;15.46;84.01
15263;BME280;7733;51.554;13.590;2023-04-24T00:41:51;99202.47;;;15.55;84.80
15263;BME280;7733;51.554;13.590;2023-04-24T00:44:18;99203.31;;;15.72;83.59
15263;BME280;7733;51.554;13.590;2023-04-24T00:46:44;99198.88;;;15.73;83.91
15263;BME280;7733;51.554;13.590;2023-04-24T00:49:12;99204.81;;;15.61;83.46
15263;BME280;7733;51.554;13.590;2023-04-24T00:51:37;99195.09;;;15.61;84.14
15263;BME280;7733;51.554;13.590;2023-04-24T00:54:03;99192.75;;;15.72;83.04
15263;BME280;7733;51.554;13.590;2023-04-24T00:56:29;99196.06;;;15.76;82.38
15263;BME280;7733;51.554;13.590;2023-04-24T00:58:56;99194.63;;;15.70;82.94
15263;BME280;7733;51.554;13.590;2023-04-24T01:01:22;99188.91;;;15.78;82.82
15263;BME280;7733;51.554;13.590;2023-04-24T01:03:51;99187.38;;;15.74;83.21
15263;BME280;7733;51.554;13.590;2023-04-24T01:06:19;99183.66;;;15.61;83.45
15263;BME280;7733;51.554;13.590;2023-04-24T01:08:47;99178.84;;;15.69;82.78
15263;BME280;7733;51.554;13.590;2023-04-24T01:11:14;99178.50;;;15.75;82.02
15263;BME280;7733;51.554;13.590;2023-04-24T01:13:40;99180.81;;;15.65;82.11
15263;BME280;7733;51.554;13.590;2023-04-24T01:16:06;99192.97;;;15.35;84.63
15263;BME280;7733;51.554;13.590;2023-04-24T01:18:32;99185.16;;;15.16;85.37
15263;BME280;7733;51.554;13.590;2023-04-24T01:20:59;99184.44;;;15.30;85.19
15263;BME280;7733;51.554;13.590;2023-04-24T01:23:28;99174.06;;;15.42;84.24
15263;BME280;7733;51.554;13.590;2023-04-24T01:25:54;99175.06;;;15.40;84.35
15263;BME280;7733;51.554;13.590;2023-04-24T01:28:21;99179.47;;;15.57;82.36
15263;BME280;7733;51.554;13.590;2023-04-24T01:30:47;99183.84;;;15.40;83.58
15263;BME280;7733;51.554;13.590;2023-04-24T01:33:13;99187.25;;;14.92;87.53
15263;BME280;7733;51.554;13.590;2023-04-24T01:35:40;99198.16;;;15.36;85.50
15263;BME280;7733;51.554;13.590;2023-04-24T01:38:06;99189.63;;;15.31;84.79
15263;BME280;7733;51.554;13.590;2023-04-24T01:40:32;99194.09;;;14.79;87.42
15263;BME280;7733;51.554;13.590;2023-04-24T01:42:59;99192.81;;;15.20;85.67
15263;BME280;7733;51.554;13.590;2023-04-24T01:45:25;99179.63;;;15.20;85.25
15263;BME280;7733;51.554;13.590;2023-04-24T01:47:50;99187.34;;;15.08;85.75
15263;BME280;7733;51.554;13.590;2023-04-24T01:50:17;99184.22;;;14.48;89.32
15263;BME280;7733;51.554;13.590;2023-04-24T01:52:43;99178.16;;;14.80;87.05
15263;BME280;7733;51.554;13.590;2023-04-24T01:55:10;99178.13;;;14.82;86.50
15263;BME280;7733;51.554;13.590;2023-04-24T01:57:36;99182.06;;;14.73;87.52
15263;BME280;7733;51.554;13.590;2023-04-24T02:00:03;99177.63;;;14.74;88.14
15263;BME280;7733;51.554;13.590;2023-04-24T02:02:33;99174.75;;;14.96;86.69
15263;BME280;7733;51.554;13.590;2023-04-24T02:04:59;99175.78;;;14.93;86.23
15263;BME280;7733;51.554;13.590;2023-04-24T02:07:25;99176.94;;;15.05;86.51
15263;BME280;7733;51.554;13.590;2023-04-24T02:09:50;99178.25;;;15.13;85.73
15263;BME280;7733;51.554;13.590;2023-04-24T02:12:16;99175.72;;;15.28;84.67
15263;BME280;7733;51.554;13.590;2023-04-24T02:14:43;99177.22;;;15.16;85.61
15263;BME280;7733;51.554;13.590;2023-04-24T02:17:10;99174.28;;;15.22;85.02
15263;BME280;7733;51.554;13.590;2023-04-24T02:19:37;99167.66;;;15.13;85.47
15263;BME280;7733;51.554;13.590;2023-04-24T02:22:03;99172.78;;;15.16;84.81
15263;BME280;7733;51.554;13.590;2023-04-24T02:24:29;99168.53;;;15.14;84.59
15263;BME280;7733;51.554;13.590;2023-04-24T02:26:54;99175.81;;;15.26;84.19
15263;BME280;7733;51.554;13.590;2023-04-24T02:29:21;99169.47;;;14.61;88.04
15263;BME280;7733;51.554;13.590;2023-04-24T02:31:46;99175.59;;;14.96;86.48
15263;BME280;7733;51.554;13.590;2023-04-24T02:34:12;99172.94;;;15.13;85.32
15263;BME280;7733;51.554;13.590;2023-04-24T02:36:38;99170.88;;;14.51;89.07
15263;BME280;7733;51.554;13.590;2023-04-24T02:39:04;99165.53;;;14.87;87.17
15263;BME280;7733;51.554;13.590;2023-04-24T02:41:29;99166.38;;;14.87;87.11
15263;BME280;7733;51.554;13.590;2023-04-24T02:43:58;99169.88;;;14.88;86.82
15263;BME280;7733;51.554;13.590;2023-04-24T02:46:24;99176.22;;;15.01;85.62
15263;BME280;7733;51.554;13.590;2023-04-24T02:48:50;99169.88;;;14.53;89.14
15263;BME280;7733;51.554;13.590;2023-04-24T02:51:16;99169.72;;;14.91;87.39
15263;BME280;7733;51.554;13.590;2023-04-24T02:53:41;99176.25;;;14.84;86.91
15263;BME280;7733;51.554;13.590;2023-04-24T02:56:07;99179.50;;;14.89;86.58
15263;BME280;7733;51.554;13.590;2023-04-24T02:58:33;99183.44;;;14.98;85.77
15263;BME280;7733;51.554;13.590;2023-04-24T03:00:59;99182.50;;;14.47;88.82
15263;BME280;7733;51.554;13.590;2023-04-24T03:03:25;99176.47;;;14.62;88.61
15263;BME280;7733;51.554;13.590;2023-04-24T03:05:51;99176.63;;;14.76;88.71
15263;BME280;7733;51.554;13.590;2023-04-24T03:08:18;99172.59;;;14.69;88.51
15263;BME280;7733;51.554;13.590;2023-04-24T03:10:44;99171.97;;;14.81;88.32
15263;BME280;7733;51.554;13.590;2023-04-24T03:13:10;99178.50;;;14.38;90.21
15263;BME280;7733;51.554;13.590;2023-04-24T03:15:35;99166.38;;;14.53;90.54
15263;BME280;7733;51.554;13.590;2023-04-24T03:18:01;99172.97;;;14.25;92.43
15263;BME280;7733;51.554;13.590;2023-04-24T03:20:28;99174.91;;;14.22;93.05
15263;BME280;7733;51.554;13.590;2023-04-24T03:22:54;99181.16;;;14.02;94.56
15263;BME280;7733;51.554;13.590;2023-04-24T03:25:19;99185.66;;;14.17;93.68
15263;BME280;7733;51.554;13.590;2023-04-24T03:27:46;99183.34;;;14.11;94.23
15263;BME280;7733;51.554;13.590;2023-04-24T03:30:12;99178.81;;;14.32;92.89
15263;BME280;7733;51.554;13.590;2023-04-24T03:32:37;99180.97;;;14.24;93.35
15263;BME280;7733;51.554;13.590;2023-04-24T03:35:06;99176.53;;;14.43;92.42
15263;BME280;7733;51.554;13.590;2023-04-24T03:37:33;99173.66;;;14.48;92.41
15263;BME280;7733;51.554;13.590;2023-04-24T03:39:59;99176.16;;;14.51;92.08
15263;BME280;7733;51.554;13.590;2023-04-24T03:42:25;99170.50;;;14.40;92.88
15263;BME280;7733;51.554;13.590;2023-04-24T03:44:50;99177.09;;;14.31;94.13
15263;BME280;7733;51.554;13.590;2023-04-24T03:47:16;99186.00;;;14.47;92.05
15263;BME280;7733;51.554;13.590;2023-04-24T03:49:42;99190.78;;;14.20;94.13
15263;BME280;7733;51.554;13.590;2023-04-24T03:52:07;99187.09;;;14.24;93.68
15263;BME280;7733;51.554;13.590;2023-04-24T03:54:33;99185.34;;;14.06;94.91
15263;BME280;7733;51.554;13.590;2023-04-24T03:56:59;99191.09;;;14.14;95.26
15263;BME280;7733;51.554;13.590;2023-04-24T03:59:25;99194.53;;;13.97;95.74
15263;BME280;7733;51.554;13.590;2023-04-24T04:01:51;99205.22;;;13.76;98.20
15263;BME280;7733;51.554;13.590;2023-04-24T04:04:16;99204.44;;;13.92;97.08
15263;BME280;7733;51.554;13.590;2023-04-24T04:06:43;99204.88;;;14.02;96.52
15263;BME280;7733;51.554;13.590;2023-04-24T04:09:10;99205.44;;;13.90;97.06
15263;BME280;7733;51.554;13.590;2023-04-24T04:11:36;99206.66;;;13.83;97.15
15263;BME280;7733;51.554;13.590;2023-04-24T04:14:02;99200.00;;;13.93;97.27
15263;BME280;7733;51.554;13.590;2023-04-24T04:16:28;99211.50;;;13.92;96.72
15263;BME280;7733;51.554;13.590;2023-04-24T04:18:53;99203.50;;;13.93;96.84
15263;BME280;7733;51.554;13.590;2023-04-24T04:21:19;99205.06;;;13.79;97.06
15263;BME280;7733;51.554;13.590;2023-04-24T04:23:45;99210.56;;;14.12;95.11
15263;BME280;7733;51.554;13.590;2023-04-24T04:26:11;99206.06;;;13.95;95.27
15263;BME280;7733;51.554;13.590;2023-04-24T04:28:38;99215.03;;;13.72;97.04
15263;BME280;7733;51.554;13.590;2023-04-24T04:31:05;99211.78;;;13.86;96.91
15263;BME280;7733;51.554;13.590;2023-04-24T04:33:33;99221.81;;;13.78;96.81
15263;BME280;7733;51.554;13.590;2023-04-24T04:36:01;99223.44;;;13.80;96.60
15263;BME280;7733;51.554;13.590;2023-04-24T04:38:27;99224.78;;;13.51;98.92
15263;BME280;7733;51.554;13.590;2023-04-24T04:40:55;99222.72;;;13.58;97.94
15263;BME280;7733;51.554;13.590;2023-04-24T04:43:23;99213.59;;;13.46;99.26
15263;BME280;7733;51.554;13.590;2023-04-24T04:45:50;99223.31;;;13.64;99.00
15263;BME280;7733;51.554;13.590;2023-04-24T04:48:17;99220.59;;;13.66;98.57
15263;BME280;7733;51.554;13.590;2023-04-24T04:50:44;99227.53;;;13.48;99.17
15263;BME280;7733;51.554;13.590;2023-04-24T04:53:10;99231.72;;;13.73;97.92
15263;BME280;7733;51.554;13.590;2023-04-24T04:55:37;99225.16;;;13.81;97.59
15263;BME280;7733;51.554;13.590;2023-04-24T04:58:03;99229.72;;;13.78;98.64
15263;BME280;7733;51.554;13.590;2023-04-24T05:00:29;99225.88;;;13.85;97.70
15263;BME280;7733;51.554;13.590;2023-04-24T05:02:59;99236.44;;;13.85;98.06
15263;BME280;7733;51.554;13.590;2023-04-24T05:05:25;99231.09;;;14.05;97.17
15263;BME280;7733;51.554;13.590;2023-04-24T05:07:51;99229.69;;;14.53;93.27
15263;BME280;7733;51.554;13.590;2023-04-24T05:10:17;99236.63;;;14.18;95.51
15263;BME280;7733;51.554;13.590;2023-04-24T05:12:43;99240.69;;;14.25;96.07
15263;BME280;7733;51.554;13.590;2023-04-24T05:15:09;99240.81;;;14.59;93.28
15263;BME280;7733;51.554;13.590;2023-04-24T05:17:35;99221.63;;;14.37;94.82
15263;BME280;7733;51.554;13.590;2023-04-24T05:20:03;99231.25;;;14.57;94.42
15263;BME280;7733;51.554;13.590;2023-04-24T05:22:31;99236.00;;;14.50;93.94
15263;BME280;7733;51.554;13.590;2023-04-24T05:24:57;99241.03;;;14.36;95.53
15263;BME280;7733;51.554;13.590;2023-04-24T05:27:23;99233.81;;;14.40;96.40
15263;BME280;7733;51.554;13.590;2023-04-24T05:29:49;99232.38;;;14.70;94.23
15263;BME280;7733;51.554;13.590;2023-04-24T05:32:15;99238.41;;;14.55;94.07
15263;BME280;7733;51.554;13.590;2023-04-24T05:34:41;99230.16;;;14.44;95.71
15263;BME280;7733;51.554;13.590;2023-04-24T05:37:07;99237.53;;;14.36;96.20
15263;BME280;7733;51.554;13.590;2023-04-24T05:39:35;99237.53;;;14.54;96.28
15263;BME280;7733;51.554;13.590;2023-04-24T05:42:02;99240.25;;;14.53;94.50
15263;BME280;7733;51.554;13.590;2023-04-24T05:44:28;99240.53;;;14.66;91.90
15263;BME280;7733;51.554;13.590;2023-04-24T05:46:54;99239.81;;;14.62;91.83
15263;BME280;7733;51.554;13.590;2023-04-24T05:49:21;99239.97;;;14.76;91.50
15263;BME280;7733;51.554;13.590;2023-04-24T05:51:47;99242.72;;;14.92;89.86
15263;BME280;7733;51.554;13.590;2023-04-24T05:54:13;99237.53;;;14.54;91.37
15263;BME280;7733;51.554;13.590;2023-04-24T05:56:39;99240.91;;;14.75;89.27
15263;BME280;7733;51.554;13.590;2023-04-24T05:59:05;99243.38;;;14.78;88.69
15263;BME280;7733;51.554;13.590;2023-04-24T06:01:31;99242.63;;;14.76;89.68
15263;BME280;7733;51.554;13.590;2023-04-24T06:03:57;99240.84;;;14.94;88.13
15263;BME280;7733;51.554;13.590;2023-04-24T06:06:24;99250.16;;;15.18;87.45
15263;BME280;7733;51.554;13.590;2023-04-24T06:08:50;99251.56;;;14.91;87.60
15263;BME280;7733;51.554;13.590;2023-04-24T06:11:15;99251.38;;;14.77;86.72
15263;BME280;7733;51.554;13.590;2023-04-24T06:13:41;99253.53;;;15.05;86.53
15263;BME280;7733;51.554;13.590;2023-04-24T06:16:07;99258.72;;;14.89;86.61
15263;BME280;7733;51.554;13.590;2023-04-24T06:18:33;99253.44;;;14.89;85.32
15263;BME280;7733;51.554;13.590;2023-04-24T06:20:59;99253.88;;;14.80;86.43
15263;BME280;7733;51.554;13.590;2023-04-24T06:23:25;99258.16;;;15.17;84.22
15263;BME280;7733;51.554;13.590;2023-04-24T06:25:51;99261.13;;;14.94;85.08
15263;BME280;7733;51.554;13.590;2023-04-24T06:28:17;99252.25;;;14.77;85.66
15263;BME280;7733;51.554;13.590;2023-04-24T06:30:42;99250.56;;;14.94;85.45
15263;BME280;7733;51.554;13.590;2023-04-24T06:33:09;99249.22;;;14.68;86.20
15263;BME280;7733;51.554;13.590;2023-04-24T06:35:36;99251.00;;;14.67;85.13
15263;BME280;7733;51.554;13.590;2023-04-24T06:38:03;99255.81;;;14.76;85.50
15263;BME280;7733;51.554;13.590;2023-04-24T06:40:29;99255.56;;;14.81;86.06
15263;BME280;7733;51.554;13.590;2023-04-24T06:42:55;99257.59;;;14.76;84.91
15263;BME280;7733;51.554;13.590;2023-04-24T06:45:20;99249.00;;;14.89;85.58
15263;BME280;7733;51.554;13.590;2023-04-24T06:47:47;99252.97;;;14.98;83.82
15263;BME280;7733;51.554;13.590;2023-04-24T06:50:13;99249.00;;;14.89;85.30
15263;BME280;7733;51.554;13.590;2023-04-24T06:52:38;99245.97;;;15.14;84.12
15263;BME280;7733;51.554;13.590;2023-04-24T06:55:05;99251.25;;;15.14;84.41
15263;BME280;7733;51.554;13.590;2023-04-24T06:57:31;99250.56;;;15.28;83.37
15263;BME280;7733;51.554;13.590;2023-04-24T06:59:57;99241.19;;;15.56;82.48
15263;BME280;7733;51.554;13.590;2023-04-24T07:02:23;99241.03;;;15.41;82.37
15263;BME280;7733;51.554;13.590;2023-04-24T07:04:48;99244.78;;;15.37;82.02
15263;BME280;7733;51.554;13.590;2023-04-24T07:07:14;99245.41;;;15.60;80.12
15263;BME280;7733;51.554;13.590;2023-04-24T07:09:41;99246.06;;;15.13;80.63
15263;BME280;7733;51.554;13.590;2023-04-24T07:12:08;99240.63;;;15.16;79.68
15263;BME280;7733;51.554;13.590;2023-04-24T07:14:36;99245.88;;;15.50;79.49
15263;BME280;7733;51.554;13.590;2023-04-24T07:17:04;99227.19;;;15.71;77.78
15263;BME280;7733;51.554;13.590;2023-04-24T07:19:30;99229.88;;;15.87;78.05
15263;BME280;7733;51.554;13.590;2023-04-24T07:21:56;99225.28;;;16.06;78.46
15263;BME280;7733;51.554;13.590;2023-04-24T07:24:24;99228.09;;;15.87;77.70
15263;BME280;7733;51.554;13.590;2023-04-24T07:26:52;99224.53;;;16.04;77.20
15263;BME280;7733;51.554;13.590;2023-04-24T07:29:18;99231.25;;;16.09;77.60
15263;BME280;7733;51.554;13.590;2023-04-24T07:31:44;99232.69;;;16.47;76.62
15263;BME280;7733;51.554;13.590;2023-04-24T07:34:10;99234.25;;;16.35;75.09
15263;BME280;7733;51.554;13.590;2023-04-24T07:36:36;99228.53;;;16.27;74.51
15263;BME280;7733;51.554;13.590;2023-04-24T07:39:04;99233.13;;;16.07;74.19
15263;BME280;7733;51.554;13.590;2023-04-24T07:41:31;99228.41;;;15.97;73.98
15263;BME280;7733;51.554;13.590;2023-04-24T07:43:58;99225.88;;;16.11;71.96
15263;BME280;7733;51.554;13.590;2023-04-24T07:46:23;99235.44;;;16.13;72.21
15263;BME280;7733;51.554;13.590;2023-04-24T07:48:50;99235.59;;;15.95;71.12
15263;BME280;7733;51.554;13.590;2023-04-24T07:51:16;99239.03;;;16.12;70.76
15263;BME280;7733;51.554;13.590;2023-04-24T07:53:43;99231.81;;;15.99;70.26
15263;BME280;7733;51.554;13.590;2023-04-24T07:56:09;99229.63;;;15.91;70.68
15263;BME280;7733;51.554;13.590;2023-04-24T07:58:35;99236.97;;;16.18;71.61
15263;BME280;7733;51.554;13.590;2023-04-24T08:01:01;99236.91;;;16.66;71.05
15263;BME280;7733;51.554;13.590;2023-04-24T08:03:27;99242.34;;;16.16;71.39
15263;BME280;7733;51.554;13.590;2023-04-24T08:05:52;99244.47;;;16.41;69.63
15263;BME280;7733;51.554;13.590;2023-04-24T08:08:22;99247.72;;;16.30;70.94
15263;BME280;7733;51.554;13.590;2023-04-24T08:10:49;99249.97;;;16.22;69.94
15263;BME280;7733;51.554;13.590;2023-04-24T08:13:15;99251.66;;;16.70;69.77
15263;BME280;7733;51.554;13.590;2023-04-24T08:15:40;99248.41;;;16.65;69.46
15263;BME280;7733;51.554;13.590;2023-04-24T08:18:06;99253.28;;;16.73;70.05
15263;BME280;7733;51.554;13.590;2023-04-24T08:20:32;99258.31;;;16.46;68.89
15263;BME280;7733;51.554;13.590;2023-04-24T08:22:58;99266.50;;;16.26;69.02
15263;BME280;7733;51.554;13.590;2023-04-24T08:25:24;99258.91;;;16.35;68.94
15263;BME280;7733;51.554;13.590;2023-04-24T08:27:51;99261.66;;;16.34;69.10
15263;BME280;7733;51.554;13.590;2023-04-24T08:30:17;99267.34;;;16.10;69.75
15263;BME280;7733;51.554;13.590;2023-04-24T08:32:43;99275.72;;;16.34;70.08
15263;BME280;7733;51.554;13.590;2023-04-24T08:35:09;99274.00;;;16.18;69.36
15263;BME280;7733;51.554;13.590;2023-04-24T08:37:35;99265.13;;;16.50;69.04
15263;BME280;7733;51.554;13.590;2023-04-24T08:40:15;99265.47;;;16.12;69.28
15263;BME280;7733;51.554;13.590;2023-04-24T08:42:43;99278.03;;;16.25;68.93
15263;BME280;7733;51.554;13.590;2023-04-24T08:45:11;99268.88;;;16.15;67.73
15263;BME280;7733;51.554;13.590;2023-04-24T08:47:39;99264.81;;;16.25;68.42
15263;BME280;7733;51.554;13.590;2023-04-24T08:50:06;99267.69;;;16.36;66.42
15263;BME280;7733;51.554;13.590;2023-04-24T08:52:34;99277.59;;;16.32;68.09
15263;BME280;7733;51.554;13.590;2023-04-24T08:55:01;99272.66;;;16.10;67.15
15263;BME280;7733;51.554;13.590;2023-04-24T08:57:28;99274.59;;;16.07;66.41
15263;BME280;7733;51.554;13.590;2023-04-24T08:59:56;99281.13;;;15.84;67.26
15263;BME280;7733;51.554;13.590;2023-04-24T09:02:23;99282.00;;;15.85;66.97
15263;BME280;7733;51.554;13.590;2023-04-24T09:04:51;99287.78;;;15.91;67.35
15263;BME280;7733;51.554;13.590;2023-04-24T09:07:19;99285.97;;;16.25;66.72
15263;BME280;7733;51.554;13.590;2023-04-24T09:09:45;99285.44;;;16.18;66.90
15263;BME280;7733;51.554;13.590;2023-04-24T09:12:12;99278.09;;;16.07;66.90
15263;BME280;7733;51.554;13.590;2023-04-24T09:14:38;99279.84;;;16.24;67.40
15263;BME280;7733;51.554;13.590;2023-04-24T09:17:08;99280.34;;;16.31;67.18
15263;BME280;7733;51.554;13.590;2023-04-24T09:19:33;99279.91;;;16.38;67.41
15263;BME280;7733;51.554;13.590;2023-04-24T09:21:59;99275.91;;;16.31;67.79
15263;BME280;7733;51.554;13.590;2023-04-24T09:24:25;99281.88;;;16.35;67.96
15263;BME280;7733;51.554;13.590;2023-04-24T09:26:58;99285.97;;;16.25;68.73
15263;BME280;7733;51.554;13.590;2023-04-24T09:29:25;99273.25;;;16.16;68.86
15263;BME280;7733;51.554;13.590;2023-04-24T09:31:50;99270.25;;;16.22;68.13
15263;BME280;7733;51.554;13.590;2023-04-24T09:34:23;99273.03;;;16.67;68.81
15263;BME280;7733;51.554;13.590;2023-04-24T09:36:50;99262.78;;;17.07;65.58
15263;BME280;7733;51.554;13.590;2023-04-24T09:39:17;99271.91;;;16.71;67.54
15263;BME280;7733;51.554;13.590;2023-04-24T09:41:56;99267.28;;;16.75;66.45
15263;BME280;7733;51.554;13.590;2023-04-24T09:44:27;99269.59;;;16.50;64.14
15263;BME280;7733;51.554;13.590;2023-04-24T09:47:00;99268.06;;;16.46;65.50
15263;BME280;7733;51.554;13.590;2023-04-24T09:49:32;99275.72;;;16.34;65.08
15263;BME280;7733;51.554;13.590;2023-04-24T09:52:10;99270.53;;;16.64;64.15
15263;BME280;7733;51.554;13.590;2023-04-24T09:54:38;99269.22;;;16.56;63.90
15263;BME280;7733;51.554;13.590;2023-04-24T09:57:05;99274.88;;;16.65;64.43
15263;BME280;7733;51.554;13.590;2023-04-24T09:59:32;99268.13;;;16.76;64.02
15263;BME280;7733;51.554;13.590;2023-04-24T10:02:00;99262.63;;;16.94;64.42
15263;BME280;7733;51.554;13.590;2023-04-24T10:04:28;99258.16;;;16.49;64.84
15263;BME280;7733;51.554;13.590;2023-04-24T10:06:56;99257.19;;;17.12;62.63
15263;BME280;7733;51.554;13.590;2023-04-24T10:09:26;99261.56;;;16.83;64.21
15263;BME280;7733;51.554;13.590;2023-04-24T10:11:54;99267.00;;;16.80;63.80
15263;BME280;7733;51.554;13.590;2023-04-24T10:14:23;99251.38;;;16.75;63.80
15263;BME280;7733;51.554;13.590;2023-04-24T10:16:51;99257.72;;;16.72;63.69
15263;BME280;7733;51.554;13.590;2023-04-24T10:19:18;99248.56;;;16.78;63.47
15263;BME280;7733;51.554;13.590;2023-04-24T10:21:45;99260.09;;;16.77;64.10
15263;BME280;7733;51.554;13.590;2023-04-24T10:24:16;99259.69;;;16.69;62.72
15263;BME280;7733;51.554;13.590;2023-04-24T10:26:43;99250.00;;;17.14;63.16
15263;BME280;7733;51.554;13.590;2023-04-24T10:29:16;99257.75;;;17.02;63.76
15263;BME280;7733;51.554;13.590;2023-04-24T10:31:43;99245.78;;;17.40;62.97
15263;BME280;7733;51.554;13.590;2023-04-24T10:34:11;99260.59;;;17.44;62.46
15263;BME280;7733;51.554;13.590;2023-04-24T10:36:45;99259.66;;;17.45;61.63
15263;BME280;7733;51.554;13.590;2023-04-24T10:39:14;99263.84;;;17.63;60.32
15263;BME280;7733;51.554;13.590;2023-04-24T10:41:41;99265.63;;;17.62;61.18
15263;BME280;7733;51.554;13.590;2023-04-24T10:44:12;99261.47;;;17.14;59.41
15263;BME280;7733;51.554;13.590;2023-04-24T10:46:45;99264.44;;;17.24;59.65
15263;BME280;7733;51.554;13.590;2023-04-24T10:49:11;99260.31;;;17.04;59.47
15263;BME280;7733;51.554;13.590;2023-04-24T10:51:52;99256.31;;;17.55;58.63
15263;BME280;7733;51.554;13.590;2023-04-24T10:54:45;99254.50;;;17.27;58.80
15263;BME280;7733;51.554;13.590;2023-04-24T10:59:52;99249.59;;;17.36;58.17
15263;BME280;7733;51.554;13.590;2023-04-24T11:02:39;99246.72;;;17.83;57.68
15263;BME280;7733;51.554;13.590;2023-04-24T11:05:06;99253.53;;;17.73;58.34
15263;BME280;7733;51.554;13.590;2023-04-24T11:10:45;99254.75;;;17.81;58.36
15263;BME280;7733;51.554;13.590;2023-04-24T11:13:17;99249.38;;;17.69;59.22
15263;BME280;7733;51.554;13.590;2023-04-24T11:16:13;99258.00;;;17.72;58.57
15263;BME280;7733;51.554;13.590;2023-04-24T11:18:43;99249.84;;;17.75;58.49
15263;BME280;7733;51.554;13.590;2023-04-24T11:21:18;99243.38;;;18.22;58.77
15263;BME280;7733;51.554;13.590;2023-04-24T11:23:45;99247.53;;;18.26;58.22
15263;BME280;7733;51.554;13.590;2023-04-24T11:26:17;99248.78;;;17.92;57.05
15263;BME280;7733;51.554;13.590;2023-04-24T11:28:48;99252.28;;;17.78;58.58
15263;BME280;7733;51.554;13.590;2023-04-24T11:31:36;99253.81;;;17.68;59.62
15263;BME280;7733;51.554;13.590;2023-04-24T11:34:13;99257.34;;;17.69;59.37
15263;BME280;7733;51.554;13.590;2023-04-24T11:36:46;99262.47;;;17.42;60.61
15263;BME280;7733;51.554;13.590;2023-04-24T11:39:13;99263.78;;;17.34;60.36
15263;BME280;7733;51.554;13.590;2023-04-24T11:41:39;99253.75;;;17.40;61.53
15263;BME280;7733;51.554;13.590;2023-04-24T11:44:09;99260.75;;;17.26;59.96
15263;BME280;7733;51.554;13.590;2023-04-24T11:46:37;99258.56;;;17.77;59.77
15263;BME280;7733;51.554;13.590;2023-04-24T11:49:05;99261.69;;;17.40;60.91
15263;BME280;7733;51.554;13.590;2023-04-24T11:51:31;99264.19;;;17.13;60.46
15263;BME280;7733;51.554;13.590;2023-04-24T11:53:58;99270.34;;;17.43;60.30
15263;BME280;7733;51.554;13.590;2023-04-24T11:56:25;99257.50;;;17.80;59.71
15263;BME280;7733;51.554;13.590;2023-04-24T11:58:53;99253.44;;;17.74;58.92
15263;BME280;7733;51.554;13.590;2023-04-24T12:01:20;99255.06;;;18.05;59.04
15263;BME280;7733;51.554;13.590;2023-04-24T12:03:50;99249.97;;;18.43;57.63
15263;BME280;7733;51.554;13.590;2023-04-24T12:06:20;99244.13;;;18.65;58.23
15263;BME280;7733;51.554;13.590;2023-04-24T12:08:47;99243.09;;;18.53;57.98
15263;BME280;7733;51.554;13.590;2023-04-24T12:11:16;99239.84;;;18.90;57.40
15263;BME280;7733;51.554;13.590;2023-04-24T12:13:44;99235.66;;;18.73;57.34
15263;BME280;7733;51.554;13.590;2023-04-24T12:16:10;99236.09;;;18.38;57.60
15263;BME280;7733;51.554;13.590;2023-04-24T12:18:45;99237.44;;;18.45;57.83
15263;BME280;7733;51.554;13.590;2023-04-24T12:21:22;99239.38;;;18.15;56.27
15263;BME280;7733;51.554;13.590;2023-04-24T12:23:48;99250.41;;;17.94;58.14
15263;BME280;7733;51.554;13.590;2023-04-24T12:26:18;99244.94;;;17.39;58.83
15263;BME280;7733;51.554;13.590;2023-04-24T12:28:48;99261.88;;;16.77;63.52
15263;BME280;7733;51.554;13.590;2023-04-24T12:31:16;99274.44;;;16.41;66.96
15263;BME280;7733;51.554;13.590;2023-04-24T12:33:42;99268.53;;;16.05;68.82
15263;BME280;7733;51.554;13.590;2023-04-24T12:36:11;99268.38;;;16.08;68.25
15263;BME280;7733;51.554;13.590;2023-04-24T12:38:38;99267.16;;;15.98;68.11
15263;BME280;7733;51.554;13.590;2023-04-24T12:41:12;99272.97;;;16.20;66.71
15263;BME280;7733;51.554;13.590;2023-04-24T12:43:50;99268.81;;;16.32;66.19
15263;BME280;7733;51.554;13.590;2023-04-24T12:46:16;99266.44;;;16.43;64.41
15263;BME280;7733;51.554;13.590;2023-04-24T12:48:42;99269.31;;;16.54;63.76
15263;BME280;7733;51.554;13.590;2023-04-24T12:51:07;99277.84;;;16.91;64.63
15263;BME280;7733;51.554;13.590;2023-04-24T12:53:33;99259.34;;;17.35;60.90
15263;BME280;7733;51.554;13.590;2023-04-24T12:55:59;99254.53;;;17.56;57.05
15263;BME280;7733;51.554;13.590;2023-04-24T12:58:25;99261.31;;;17.31;57.57
15263;BME280;7733;51.554;13.590;2023-04-24T13:00:51;99263.72;;;17.06;55.09
15263;BME280;7733;51.554;13.590;2023-04-24T13:03:18;99266.84;;;16.83;53.22
15263;BME280;7733;51.554;13.590;2023-04-24T13:05:44;99264.44;;;17.24;53.52